Terminal Aerodrome Forecast
Issued by NWS Twin Cities, MN

Home | Current Version | Previous Version | Graphics & Text | Print | Product List | Glossary On
Versions: 1 2 3 4 5 6 7 8 9 10 11 12 13 14 15 16 17 18 19 20 21 22 23 24 25 26 27 28 29
759
FTUS43 KMPX 062341
TAFMSP
TAF
KMSP 062341Z 0700/0806 19012G18KT P6SM OVC080
     FM070200 20012G18KT P6SM -RA OVC050
     FM070600 24012G18KT P6SM BKN120
     FM071200 27014G22KT P6SM SCT020 OVC035
     FM072000 28018G32KT 2SM -SHSN BLSN OVC015=

USA.gov is the U.S. government's official web portal to all federal, state and local government web resources and services.